Aérodrome :
LOGIN :

S'inscrire | Disclaimer

   EN    FR    IT 

 










Légende :    VFR   VFR Marginal   IFR   IFR Intensif   IFR Très Intensif
Visi : 
Plafond : 
>= 8 km
>= 3000ft
5 à 8 km
1000 à 3000 ft
1500m à 5 km
500 à 1000 ft
800 à 1500m
200 à 500 ft
< 800m
< 200 ft
Symboles :   Orages  Brouillard  Fortes neiges  Fortes précipitations  Vent > 20 kt
SIGMETs :   Divers  Orages  Givrage  Turbulence  Onde Orograph.  Cendres Volcan.







- Altitude de l'aérodrome : 141 ft
- Code IATA : TGD


LYPG - Podgorica - Montenegro

DERNIER METAR :
  • 250830Z 13006KT 100V180 9999 FEW090 28/17 Q1016 NOSIG

METARs EXPIRÉS :
  • 250800Z 12007KT 080V160 9999 FEW090 28/17 Q1016 NOSIG
  • 250730Z 03010KT 350V060 9999 FEW040 30/14 Q1016 NOSIG
  • 250700Z 02011KT 350V130 9999 FEW040 30/14 Q1016 NOSIG
  • 250630Z 02009KT 340V050 9999 FEW050 30/14 Q1016 NOSIG
  • 250600Z VRB02KT 9999 FEW050 29/15 Q1016 NOSIG
  • 250530Z VRB01KT 9999 FEW090 27/16 Q1016 NOSIG

TAF AMD TAF LYPG
Valide du 25 à 07h jusqu'au 26 à 06h UTC


250655Z 2507/2606 02007KT 9999 FEW040 TX34/2512Z TN22/2604Z
TEMPO 2507/2511 02017KT
PROB30
TEMPO 2512/2518 VRB15G25KT 5000 TSRA FEW30CB SCT040
Pas de NOTAMs connus pour ce terrain.



MET'MAP, la Météo Aéronautique d'un coup d'oeil ! - Copyright ORBIFLY Décembre 2007 - Disclaimer

ORBIFLY MET'MAP TEAM :

Programmation & Développement : Alexandra Zaïnal
Conception & Développement : Baudouin d'Aumeries
Co-Programmation & Développement : Marc-Olivier Méhu
Soutien technique & logistique : Manuel Goepfert

Contact : metmap@orbifly.com




SOURCES & CREDITS :

   NOAA